sensor_id;sensor_type;location;lat;lon;timestamp;temperature;humidity
10891;DHT22;5498;50.928;11.598;2023-02-04T00:02:06;7.20;84.50
10891;DHT22;5498;50.928;11.598;2023-02-04T00:05:10;7.20;84.60
10891;DHT22;5498;50.928;11.598;2023-02-04T00:08:12;7.20;85.20
10891;DHT22;5498;50.928;11.598;2023-02-04T00:11:14;7.20;85.00
10891;DHT22;5498;50.928;11.598;2023-02-04T00:14:19;7.10;85.30
10891;DHT22;5498;50.928;11.598;2023-02-04T00:17:20;7.10;85.40
10891;DHT22;5498;50.928;11.598;2023-02-04T00:20:24;7.10;85.50
10891;DHT22;5498;50.928;11.598;2023-02-04T00:23:25;7.10;85.60
10891;DHT22;5498;50.928;11.598;2023-02-04T00:26:27;7.10;85.80
10891;DHT22;5498;50.928;11.598;2023-02-04T00:29:29;7.10;86.00
10891;DHT22;5498;50.928;11.598;2023-02-04T00:32:31;7.10;86.10
10891;DHT22;5498;50.928;11.598;2023-02-04T00:35:35;7.10;86.30
10891;DHT22;5498;50.928;11.598;2023-02-04T00:38:37;7.00;86.70
10891;DHT22;5498;50.928;11.598;2023-02-04T00:41:39;7.00;87.10
10891;DHT22;5498;50.928;11.598;2023-02-04T00:44:41;7.00;87.60
10891;DHT22;5498;50.928;11.598;2023-02-04T00:47:43;7.00;87.60
10891;DHT22;5498;50.928;11.598;2023-02-04T00:50:46;7.00;88.20
10891;DHT22;5498;50.928;11.598;2023-02-04T00:53:48;7.00;89.20
10891;DHT22;5498;50.928;11.598;2023-02-04T00:56:49;6.90;89.70
10891;DHT22;5498;50.928;11.598;2023-02-04T00:59:51;7.00;89.70
10891;DHT22;5498;50.928;11.598;2023-02-04T01:02:53;7.00;89.90
10891;DHT22;5498;50.928;11.598;2023-02-04T01:05:56;6.90;90.00
10891;DHT22;5498;50.928;11.598;2023-02-04T01:08:58;6.90;90.10
10891;DHT22;5498;50.928;11.598;2023-02-04T01:12:01;7.00;90.00
10891;DHT22;5498;50.928;11.598;2023-02-04T01:15:04;7.00;90.00
10891;DHT22;5498;50.928;11.598;2023-02-04T01:18:06;6.90;90.10
10891;DHT22;5498;50.928;11.598;2023-02-04T01:21:09;6.90;90.10
10891;DHT22;5498;50.928;11.598;2023-02-04T01:24:11;6.90;90.30
10891;DHT22;5498;50.928;11.598;2023-02-04T01:27:13;6.60;90.20
10891;DHT22;5498;50.928;11.598;2023-02-04T01:30:15;6.20;88.50
10891;DHT22;5498;50.928;11.598;2023-02-04T01:33:18;5.60;87.60
10891;DHT22;5498;50.928;11.598;2023-02-04T01:36:21;5.50;88.30
10891;DHT22;5498;50.928;11.598;2023-02-04T01:39:23;5.40;88.50
10891;DHT22;5498;50.928;11.598;2023-02-04T01:42:25;4.90;89.80
10891;DHT22;5498;50.928;11.598;2023-02-04T01:45:27;4.80;90.10
10891;DHT22;5498;50.928;11.598;2023-02-04T01:48:30;4.30;90.80
10891;DHT22;5498;50.928;11.598;2023-02-04T01:51:33;4.20;91.20
10891;DHT22;5498;50.928;11.598;2023-02-04T01:54:36;4.00;91.70
10891;DHT22;5498;50.928;11.598;2023-02-04T01:57:38;4.10;91.80
10891;DHT22;5498;50.928;11.598;2023-02-04T02:00:41;4.00;91.90
10891;DHT22;5498;50.928;11.598;2023-02-04T02:03:43;4.00;92.00
10891;DHT22;5498;50.928;11.598;2023-02-04T02:06:48;4.10;91.90
10891;DHT22;5498;50.928;11.598;2023-02-04T02:09:51;4.10;91.90
10891;DHT22;5498;50.928;11.598;2023-02-04T02:12:54;4.20;91.90
10891;DHT22;5498;50.928;11.598;2023-02-04T02:15:56;4.10;92.20
10891;DHT22;5498;50.928;11.598;2023-02-04T02:18:58;4.20;92.20
10891;DHT22;5498;50.928;11.598;2023-02-04T02:22:04;4.20;92.20
10891;DHT22;5498;50.928;11.598;2023-02-04T02:25:12;4.30;92.30
10891;DHT22;5498;50.928;11.598;2023-02-04T02:28:16;4.30;92.30
10891;DHT22;5498;50.928;11.598;2023-02-04T02:31:21;4.30;92.30
10891;DHT22;5498;50.928;11.598;2023-02-04T02:34:25;4.40;92.30
10891;DHT22;5498;50.928;11.598;2023-02-04T02:37:28;4.50;92.20
10891;DHT22;5498;50.928;11.598;2023-02-04T02:40:32;4.50;92.10
10891;DHT22;5498;50.928;11.598;2023-02-04T02:43:34;4.50;92.20
10891;DHT22;5498;50.928;11.598;2023-02-04T02:46:37;4.50;92.20
10891;DHT22;5498;50.928;11.598;2023-02-04T02:49:42;4.50;92.10
10891;DHT22;5498;50.928;11.598;2023-02-04T02:52:44;4.60;92.10
10891;DHT22;5498;50.928;11.598;2023-02-04T02:55:47;4.70;91.70
10891;DHT22;5498;50.928;11.598;2023-02-04T02:58:49;4.70;91.60
10891;DHT22;5498;50.928;11.598;2023-02-04T03:01:54;4.70;91.60
10891;DHT22;5498;50.928;11.598;2023-02-04T03:04:58;4.70;91.70
10891;DHT22;5498;50.928;11.598;2023-02-04T03:08:01;4.70;91.60
10891;DHT22;5498;50.928;11.598;2023-02-04T03:11:05;4.90;91.60
10891;DHT22;5498;50.928;11.598;2023-02-04T03:14:07;4.70;91.40
10891;DHT22;5498;50.928;11.598;2023-02-04T03:17:09;4.70;91.30
10891;DHT22;5498;50.928;11.598;2023-02-04T03:20:13;4.60;91.40
10891;DHT22;5498;50.928;11.598;2023-02-04T03:23:15;4.60;91.40
10891;DHT22;5498;50.928;11.598;2023-02-04T03:26:19;4.40;91.20
10891;DHT22;5498;50.928;11.598;2023-02-04T03:29:21;4.50;90.90
10891;DHT22;5498;50.928;11.598;2023-02-04T03:32:23;4.40;90.90
10891;DHT22;5498;50.928;11.598;2023-02-04T03:35:25;4.30;91.00
10891;DHT22;5498;50.928;11.598;2023-02-04T03:38:27;4.20;91.10
10891;DHT22;5498;50.928;11.598;2023-02-04T03:41:30;3.80;91.10
10891;DHT22;5498;50.928;11.598;2023-02-04T03:44:32;3.90;91.20
10891;DHT22;5498;50.928;11.598;2023-02-04T03:47:34;3.90;91.10
10891;DHT22;5498;50.928;11.598;2023-02-04T03:50:36;3.70;91.20
10891;DHT22;5498;50.928;11.598;2023-02-04T03:53:37;3.70;91.20
10891;DHT22;5498;50.928;11.598;2023-02-04T03:56:41;3.60;91.30
10891;DHT22;5498;50.928;11.598;2023-02-04T03:59:44;3.60;91.30
10891;DHT22;5498;50.928;11.598;2023-02-04T04:02:47;3.60;91.40
10891;DHT22;5498;50.928;11.598;2023-02-04T04:05:49;3.50;91.40
10891;DHT22;5498;50.928;11.598;2023-02-04T04:08:51;3.60;91.50
10891;DHT22;5498;50.928;11.598;2023-02-04T04:11:54;3.60;91.50
10891;DHT22;5498;50.928;11.598;2023-02-04T04:14:56;3.60;91.40
10891;DHT22;5498;50.928;11.598;2023-02-04T04:17:58;3.40;91.80
10891;DHT22;5498;50.928;11.598;2023-02-04T04:21:00;3.40;91.70
10891;DHT22;5498;50.928;11.598;2023-02-04T04:24:02;3.20;91.90
10891;DHT22;5498;50.928;11.598;2023-02-04T04:27:05;3.30;91.80
10891;DHT22;5498;50.928;11.598;2023-02-04T04:30:08;3.20;91.80
10891;DHT22;5498;50.928;11.598;2023-02-04T04:33:13;3.30;91.90
10891;DHT22;5498;50.928;11.598;2023-02-04T04:36:15;3.30;91.70
10891;DHT22;5498;50.928;11.598;2023-02-04T04:39:17;3.30;91.60
10891;DHT22;5498;50.928;11.598;2023-02-04T04:42:20;3.40;91.70
10891;DHT22;5498;50.928;11.598;2023-02-04T04:45:22;3.20;91.70
10891;DHT22;5498;50.928;11.598;2023-02-04T04:48:24;3.30;91.60
10891;DHT22;5498;50.928;11.598;2023-02-04T04:51:26;3.40;91.60
10891;DHT22;5498;50.928;11.598;2023-02-04T04:54:31;3.50;91.40
10891;DHT22;5498;50.928;11.598;2023-02-04T04:57:34;3.50;91.30
10891;DHT22;5498;50.928;11.598;2023-02-04T05:00:36;3.40;91.30
10891;DHT22;5498;50.928;11.598;2023-02-04T05:03:38;3.40;91.40
10891;DHT22;5498;50.928;11.598;2023-02-04T05:06:39;3.40;91.60
10891;DHT22;5498;50.928;11.598;2023-02-04T05:09:41;3.30;91.80
10891;DHT22;5498;50.928;11.598;2023-02-04T05:12:44;3.40;91.90
10891;DHT22;5498;50.928;11.598;2023-02-04T05:15:46;3.50;91.70
10891;DHT22;5498;50.928;11.598;2023-02-04T05:18:48;3.60;91.60
10891;DHT22;5498;50.928;11.598;2023-02-04T05:21:50;3.70;91.50
10891;DHT22;5498;50.928;11.598;2023-02-04T05:24:52;3.70;91.20
10891;DHT22;5498;50.928;11.598;2023-02-04T05:27:55;3.70;91.10
10891;DHT22;5498;50.928;11.598;2023-02-04T05:30:57;3.70;91.20
10891;DHT22;5498;50.928;11.598;2023-02-04T05:33:59;3.40;91.10
10891;DHT22;5498;50.928;11.598;2023-02-04T05:37:01;3.20;91.40
10891;DHT22;5498;50.928;11.598;2023-02-04T05:40:03;3.10;92.00
10891;DHT22;5498;50.928;11.598;2023-02-04T05:43:07;2.50;92.70
10891;DHT22;5498;50.928;11.598;2023-02-04T05:46:09;2.50;92.90
10891;DHT22;5498;50.928;11.598;2023-02-04T05:49:11;2.40;93.30
10891;DHT22;5498;50.928;11.598;2023-02-04T05:52:13;2.40;93.80
10891;DHT22;5498;50.928;11.598;2023-02-04T05:55:15;1.90;94.00
10891;DHT22;5498;50.928;11.598;2023-02-04T05:58:18;1.90;94.20
10891;DHT22;5498;50.928;11.598;2023-02-04T06:01:20;1.80;94.50
10891;DHT22;5498;50.928;11.598;2023-02-04T06:04:21;2.30;94.70
10891;DHT22;5498;50.928;11.598;2023-02-04T06:07:23;2.20;94.70
10891;DHT22;5498;50.928;11.598;2023-02-04T06:10:25;1.90;94.50
10891;DHT22;5498;50.928;11.598;2023-02-04T06:13:28;2.10;94.40
10891;DHT22;5498;50.928;11.598;2023-02-04T06:16:30;2.00;94.10
10891;DHT22;5498;50.928;11.598;2023-02-04T06:19:32;2.10;94.00
10891;DHT22;5498;50.928;11.598;2023-02-04T06:22:34;2.10;93.80
10891;DHT22;5498;50.928;11.598;2023-02-04T06:25:35;2.30;93.70
10891;DHT22;5498;50.928;11.598;2023-02-04T06:28:38;2.80;93.70
10891;DHT22;5498;50.928;11.598;2023-02-04T06:31:41;2.60;93.30
10891;DHT22;5498;50.928;11.598;2023-02-04T06:34:44;2.60;93.20
10891;DHT22;5498;50.928;11.598;2023-02-04T06:37:46;2.70;93.10
10891;DHT22;5498;50.928;11.598;2023-02-04T06:40:48;3.00;93.10
10891;DHT22;5498;50.928;11.598;2023-02-04T06:43:54;2.90;92.90
10891;DHT22;5498;50.928;11.598;2023-02-04T06:46:56;3.10;93.00
10891;DHT22;5498;50.928;11.598;2023-02-04T06:49:58;2.80;92.90
10891;DHT22;5498;50.928;11.598;2023-02-04T06:53:00;2.90;93.00
10891;DHT22;5498;50.928;11.598;2023-02-04T06:56:02;3.00;93.00
10891;DHT22;5498;50.928;11.598;2023-02-04T06:59:05;3.00;93.10
10891;DHT22;5498;50.928;11.598;2023-02-04T07:02:07;3.00;93.10
10891;DHT22;5498;50.928;11.598;2023-02-04T07:05:11;3.10;93.10
10891;DHT22;5498;50.928;11.598;2023-02-04T07:08:13;3.10;92.90
10891;DHT22;5498;50.928;11.598;2023-02-04T07:11:15;3.10;92.90
10891;DHT22;5498;50.928;11.598;2023-02-04T07:14:18;3.10;92.90
10891;DHT22;5498;50.928;11.598;2023-02-04T07:17:20;3.20;92.80
10891;DHT22;5498;50.928;11.598;2023-02-04T07:20:22;3.20;92.90
10891;DHT22;5498;50.928;11.598;2023-02-04T07:23:24;3.30;92.80
10891;DHT22;5498;50.928;11.598;2023-02-04T07:26:27;3.30;92.70
10891;DHT22;5498;50.928;11.598;2023-02-04T07:29:30;3.20;92.60
10891;DHT22;5498;50.928;11.598;2023-02-04T07:32:32;3.00;92.40
10891;DHT22;5498;50.928;11.598;2023-02-04T07:35:34;2.80;92.70
10891;DHT22;5498;50.928;11.598;2023-02-04T07:38:37;2.80;93.30
10891;DHT22;5498;50.928;11.598;2023-02-04T07:41:39;2.80;93.40
10891;DHT22;5498;50.928;11.598;2023-02-04T07:44:42;2.90;93.30
10891;DHT22;5498;50.928;11.598;2023-02-04T07:47:44;2.80;93.10
10891;DHT22;5498;50.928;11.598;2023-02-04T07:50:46;2.70;93.40
10891;DHT22;5498;50.928;11.598;2023-02-04T07:53:50;2.80;93.50
10891;DHT22;5498;50.928;11.598;2023-02-04T07:56:52;2.90;93.40
10891;DHT22;5498;50.928;11.598;2023-02-04T07:59:56;2.40;93.40
10891;DHT22;5498;50.928;11.598;2023-02-04T08:02:58;2.30;94.30
10891;DHT22;5498;50.928;11.598;2023-02-04T08:06:00;2.30;94.10
10891;DHT22;5498;50.928;11.598;2023-02-04T08:09:02;2.50;94.20
10891;DHT22;5498;50.928;11.598;2023-02-04T08:12:05;2.80;94.00
10891;DHT22;5498;50.928;11.598;2023-02-04T08:15:08;2.50;93.60
10891;DHT22;5498;50.928;11.598;2023-02-04T08:18:10;2.70;93.70
10891;DHT22;5498;50.928;11.598;2023-02-04T08:21:12;2.90;93.50
10891;DHT22;5498;50.928;11.598;2023-02-04T08:24:15;3.00;93.30
10891;DHT22;5498;50.928;11.598;2023-02-04T08:27:17;3.20;93.20
10891;DHT22;5498;50.928;11.598;2023-02-04T08:30:20;3.50;92.90
10891;DHT22;5498;50.928;11.598;2023-02-04T08:33:22;3.20;92.70
10891;DHT22;5498;50.928;11.598;2023-02-04T08:36:24;3.10;92.50
10891;DHT22;5498;50.928;11.598;2023-02-04T08:39:26;3.10;92.60
10891;DHT22;5498;50.928;11.598;2023-02-04T08:42:29;3.00;92.50
10891;DHT22;5498;50.928;11.598;2023-02-04T08:45:32;3.20;92.60
10891;DHT22;5498;50.928;11.598;2023-02-04T08:48:34;3.40;92.40
10891;DHT22;5498;50.928;11.598;2023-02-04T08:51:36;3.50;92.20
10891;DHT22;5498;50.928;11.598;2023-02-04T08:54:38;3.60;91.90
10891;DHT22;5498;50.928;11.598;2023-02-04T08:57:40;3.40;91.80
10891;DHT22;5498;50.928;11.598;2023-02-04T09:00:43;3.30;91.70
10891;DHT22;5498;50.928;11.598;2023-02-04T09:03:45;3.60;91.60
10891;DHT22;5498;50.928;11.598;2023-02-04T09:06:47;3.30;91.60
10891;DHT22;5498;50.928;11.598;2023-02-04T09:09:49;3.20;91.60
10891;DHT22;5498;50.928;11.598;2023-02-04T09:12:51;3.20;91.40
10891;DHT22;5498;50.928;11.598;2023-02-04T09:15:57;3.20;91.60
10891;DHT22;5498;50.928;11.598;2023-02-04T09:18:59;3.30;91.50
10891;DHT22;5498;50.928;11.598;2023-02-04T09:22:02;3.00;91.60
10891;DHT22;5498;50.928;11.598;2023-02-04T09:25:04;2.70;91.80
10891;DHT22;5498;50.928;11.598;2023-02-04T09:28:08;2.70;92.00
10891;DHT22;5498;50.928;11.598;2023-02-04T09:31:13;2.70;92.20
10891;DHT22;5498;50.928;11.598;2023-02-04T09:34:15;2.80;92.30
10891;DHT22;5498;50.928;11.598;2023-02-04T09:37:16;2.50;92.30
10891;DHT22;5498;50.928;11.598;2023-02-04T09:40:19;2.40;92.50
10891;DHT22;5498;50.928;11.598;2023-02-04T09:43:24;2.30;92.70
10891;DHT22;5498;50.928;11.598;2023-02-04T09:46:28;2.60;92.70
10891;DHT22;5498;50.928;11.598;2023-02-04T09:49:31;2.70;92.20
10891;DHT22;5498;50.928;11.598;2023-02-04T09:52:33;2.90;91.90
10891;DHT22;5498;50.928;11.598;2023-02-04T09:55:38;3.20;91.60
10891;DHT22;5498;50.928;11.598;2023-02-04T09:58:41;3.50;91.50
10891;DHT22;5498;50.928;11.598;2023-02-04T10:01:45;3.70;91.20
10891;DHT22;5498;50.928;11.598;2023-02-04T10:04:48;3.80;90.80
10891;DHT22;5498;50.928;11.598;2023-02-04T10:07:51;3.90;90.60
10891;DHT22;5498;50.928;11.598;2023-02-04T10:10:53;4.00;90.40
10891;DHT22;5498;50.928;11.598;2023-02-04T10:13:56;3.80;89.30
10891;DHT22;5498;50.928;11.598;2023-02-04T10:17:00;3.80;89.00
10891;DHT22;5498;50.928;11.598;2023-02-04T10:20:02;3.90;88.90
10891;DHT22;5498;50.928;11.598;2023-02-04T10:23:08;4.00;89.10
10891;DHT22;5498;50.928;11.598;2023-02-04T10:26:11;4.20;89.20
10891;DHT22;5498;50.928;11.598;2023-02-04T10:29:16;4.30;89.10
10891;DHT22;5498;50.928;11.598;2023-02-04T10:32:27;4.40;89.00
10891;DHT22;5498;50.928;11.598;2023-02-04T10:35:30;4.50;88.70
10891;DHT22;5498;50.928;11.598;2023-02-04T10:38:32;4.60;88.30
10891;DHT22;5498;50.928;11.598;2023-02-04T10:41:35;4.60;87.40
10891;DHT22;5498;50.928;11.598;2023-02-04T10:44:45;4.70;87.10
10891;DHT22;5498;50.928;11.598;2023-02-04T10:47:52;4.80;87.70
10891;DHT22;5498;50.928;11.598;2023-02-04T10:50:56;4.90;86.50
10891;DHT22;5498;50.928;11.598;2023-02-04T10:53:59;4.90;86.40
10891;DHT22;5498;50.928;11.598;2023-02-04T10:57:21;5.00;86.30
10891;DHT22;5498;50.928;11.598;2023-02-04T11:00:24;5.20;86.70
10891;DHT22;5498;50.928;11.598;2023-02-04T11:03:29;5.40;86.50
10891;DHT22;5498;50.928;11.598;2023-02-04T11:06:31;5.60;85.80
10891;DHT22;5498;50.928;11.598;2023-02-04T11:09:33;5.80;85.10
10891;DHT22;5498;50.928;11.598;2023-02-04T11:12:37;6.10;84.60
10891;DHT22;5498;50.928;11.598;2023-02-04T11:15:44;6.40;84.30
10891;DHT22;5498;50.928;11.598;2023-02-04T11:18:49;6.50;82.50
10891;DHT22;5498;50.928;11.598;2023-02-04T11:21:52;6.60;82.10
10891;DHT22;5498;50.928;11.598;2023-02-04T11:25:31;6.70;79.70
10891;DHT22;5498;50.928;11.598;2023-02-04T11:28:54;6.60;77.50
10891;DHT22;5498;50.928;11.598;2023-02-04T11:32:00;6.80;78.20
10891;DHT22;5498;50.928;11.598;2023-02-04T11:35:23;6.90;77.70
10891;DHT22;5498;50.928;11.598;2023-02-04T11:38:27;7.10;77.50
10891;DHT22;5498;50.928;11.598;2023-02-04T11:41:32;6.70;74.20
10891;DHT22;5498;50.928;11.598;2023-02-04T11:44:35;6.10;75.90
10891;DHT22;5498;50.928;11.598;2023-02-04T11:47:37;6.40;77.50
10891;DHT22;5498;50.928;11.598;2023-02-04T11:50:41;6.60;77.80
10891;DHT22;5498;50.928;11.598;2023-02-04T11:53:43;5.50;75.00
10891;DHT22;5498;50.928;11.598;2023-02-04T11:56:45;5.60;76.80
10891;DHT22;5498;50.928;11.598;2023-02-04T11:59:47;5.30;75.50
10891;DHT22;5498;50.928;11.598;2023-02-04T12:02:54;5.20;76.60
10891;DHT22;5498;50.928;11.598;2023-02-04T12:05:59;5.10;76.80
10891;DHT22;5498;50.928;11.598;2023-02-04T12:09:05;4.50;77.60
10891;DHT22;5498;50.928;11.598;2023-02-04T12:12:07;4.70;79.40
10891;DHT22;5498;50.928;11.598;2023-02-04T12:15:14;5.00;79.70
10891;DHT22;5498;50.928;11.598;2023-02-04T12:18:17;5.00;76.20
10891;DHT22;5498;50.928;11.598;2023-02-04T12:21:20;5.00;75.90
10891;DHT22;5498;50.928;11.598;2023-02-04T12:24:22;5.20;75.20
10891;DHT22;5498;50.928;11.598;2023-02-04T12:27:24;5.60;75.50
10891;DHT22;5498;50.928;11.598;2023-02-04T12:30:26;5.70;73.10
10891;DHT22;5498;50.928;11.598;2023-02-04T12:33:28;6.00;72.50
10891;DHT22;5498;50.928;11.598;2023-02-04T12:36:32;6.30;73.20
10891;DHT22;5498;50.928;11.598;2023-02-04T12:39:34;6.40;74.30
10891;DHT22;5498;50.928;11.598;2023-02-04T12:42:36;6.50;75.00
10891;DHT22;5498;50.928;11.598;2023-02-04T12:45:38;6.60;74.80
10891;DHT22;5498;50.928;11.598;2023-02-04T12:48:44;6.50;74.40
10891;DHT22;5498;50.928;11.598;2023-02-04T12:51:48;6.60;74.50
10891;DHT22;5498;50.928;11.598;2023-02-04T12:54:49;6.50;74.40
10891;DHT22;5498;50.928;11.598;2023-02-04T12:57:51;6.50;74.40
10891;DHT22;5498;50.928;11.598;2023-02-04T13:00:53;6.50;74.40
10891;DHT22;5498;50.928;11.598;2023-02-04T13:03:55;6.20;72.50
10891;DHT22;5498;50.928;11.598;2023-02-04T13:06:58;5.90;73.10
10891;DHT22;5498;50.928;11.598;2023-02-04T13:10:00;6.00;74.20
10891;DHT22;5498;50.928;11.598;2023-02-04T13:13:02;5.80;72.40
10891;DHT22;5498;50.928;11.598;2023-02-04T13:16:04;5.70;72.20
10891;DHT22;5498;50.928;11.598;2023-02-04T13:19:06;5.80;73.30
10891;DHT22;5498;50.928;11.598;2023-02-04T13:22:10;5.90;73.30
10891;DHT22;5498;50.928;11.598;2023-02-04T13:25:11;5.90;72.60
10891;DHT22;5498;50.928;11.598;2023-02-04T13:28:14;5.70;72.30
10891;DHT22;5498;50.928;11.598;2023-02-04T13:31:16;5.60;72.50
10891;DHT22;5498;50.928;11.598;2023-02-04T13:34:18;5.80;73.10
10891;DHT22;5498;50.928;11.598;2023-02-04T13:37:22;6.00;73.10
10891;DHT22;5498;50.928;11.598;2023-02-04T13:40:23;6.00;72.10
10891;DHT22;5498;50.928;11.598;2023-02-04T13:43:26;5.80;69.20
10891;DHT22;5498;50.928;11.598;2023-02-04T13:46:28;5.30;67.70
10891;DHT22;5498;50.928;11.598;2023-02-04T13:49:30;4.50;69.00
10891;DHT22;5498;50.928;11.598;2023-02-04T13:52:33;4.50;70.30
10891;DHT22;5498;50.928;11.598;2023-02-04T13:55:35;4.20;71.40
10891;DHT22;5498;50.928;11.598;2023-02-04T13:58:36;4.20;72.20
10891;DHT22;5498;50.928;11.598;2023-02-04T14:01:43;3.90;73.10
10891;DHT22;5498;50.928;11.598;2023-02-04T14:04:44;4.00;73.70
10891;DHT22;5498;50.928;11.598;2023-02-04T14:07:47;4.30;74.60
10891;DHT22;5498;50.928;11.598;2023-02-04T14:10:49;4.60;74.80
10891;DHT22;5498;50.928;11.598;2023-02-04T14:13:51;4.90;74.80
10891;DHT22;5498;50.928;11.598;2023-02-04T14:16:53;5.10;75.00
10891;DHT22;5498;50.928;11.598;2023-02-04T14:19:56;5.30;75.30
10891;DHT22;5498;50.928;11.598;2023-02-04T14:22:59;5.40;75.20
10891;DHT22;5498;50.928;11.598;2023-02-04T14:26:01;5.50;75.40
10891;DHT22;5498;50.928;11.598;2023-02-04T14:29:02;5.60;75.70
10891;DHT22;5498;50.928;11.598;2023-02-04T14:32:06;5.70;75.60
10891;DHT22;5498;50.928;11.598;2023-02-04T14:35:08;5.70;75.50
10891;DHT22;5498;50.928;11.598;2023-02-04T14:38:11;5.70;75.10
10891;DHT22;5498;50.928;11.598;2023-02-04T14:41:15;5.70;75.00
10891;DHT22;5498;50.928;11.598;2023-02-04T14:44:19;5.70;74.70
10891;DHT22;5498;50.928;11.598;2023-02-04T14:47:21;5.70;74.60
10891;DHT22;5498;50.928;11.598;2023-02-04T14:50:23;5.80;74.70
10891;DHT22;5498;50.928;11.598;2023-02-04T14:53:27;6.10;74.80
10891;DHT22;5498;50.928;11.598;2023-02-04T14:56:29;5.80;73.90
10891;DHT22;5498;50.928;11.598;2023-02-04T14:59:31;5.80;73.70
10891;DHT22;5498;50.928;11.598;2023-02-04T15:02:33;5.80;73.80
10891;DHT22;5498;50.928;11.598;2023-02-04T15:05:35;5.80;73.50
10891;DHT22;5498;50.928;11.598;2023-02-04T15:08:38;5.80;73.60
10891;DHT22;5498;50.928;11.598;2023-02-04T15:11:40;5.80;73.80
10891;DHT22;5498;50.928;11.598;2023-02-04T15:14:42;5.90;73.40
10891;DHT22;5498;50.928;11.598;2023-02-04T15:17:43;5.90;73.00
10891;DHT22;5498;50.928;11.598;2023-02-04T15:20:45;5.90;72.90
10891;DHT22;5498;50.928;11.598;2023-02-04T15:23:48;5.90;72.60
10891;DHT22;5498;50.928;11.598;2023-02-04T15:26:50;5.90;72.30
10891;DHT22;5498;50.928;11.598;2023-02-04T15:29:52;5.90;72.40
10891;DHT22;5498;50.928;11.598;2023-02-04T15:32:54;5.90;72.50
10891;DHT22;5498;50.928;11.598;2023-02-04T15:35:56;6.00;73.00
10891;DHT22;5498;50.928;11.598;2023-02-04T15:38:59;5.80;73.20
10891;DHT22;5498;50.928;11.598;2023-02-04T15:42:01;5.80;73.70
10891;DHT22;5498;50.928;11.598;2023-02-04T15:45:03;5.80;73.70
10891;DHT22;5498;50.928;11.598;2023-02-04T15:48:06;5.80;73.90
10891;DHT22;5498;50.928;11.598;2023-02-04T15:51:07;5.80;74.10
10891;DHT22;5498;50.928;11.598;2023-02-04T15:54:11;5.70;73.60
10891;DHT22;5498;50.928;11.598;2023-02-04T15:57:13;5.70;74.30
10891;DHT22;5498;50.928;11.598;2023-02-04T16:00:15;5.70;74.60
10891;DHT22;5498;50.928;11.598;2023-02-04T16:03:17;5.70;74.50
10891;DHT22;5498;50.928;11.598;2023-02-04T16:06:19;5.70;74.50
10891;DHT22;5498;50.928;11.598;2023-02-04T16:09:22;5.60;74.20
10891;DHT22;5498;50.928;11.598;2023-02-04T16:12:24;5.60;74.80
10891;DHT22;5498;50.928;11.598;2023-02-04T16:15:26;5.40;74.50
10891;DHT22;5498;50.928;11.598;2023-02-04T16:18:28;5.40;75.20
10891;DHT22;5498;50.928;11.598;2023-02-04T16:21:30;5.30;75.50
10891;DHT22;5498;50.928;11.598;2023-02-04T16:24:33;5.40;75.70
10891;DHT22;5498;50.928;11.598;2023-02-04T16:27:35;5.20;75.70
10891;DHT22;5498;50.928;11.598;2023-02-04T16:30:37;5.20;76.00
10891;DHT22;5498;50.928;11.598;2023-02-04T16:33:39;5.20;76.20
10891;DHT22;5498;50.928;11.598;2023-02-04T16:36:43;5.10;76.50
10891;DHT22;5498;50.928;11.598;2023-02-04T16:39:47;4.90;77.00
10891;DHT22;5498;50.928;11.598;2023-02-04T16:42:50;4.90;77.70
10891;DHT22;5498;50.928;11.598;2023-02-04T16:45:53;4.80;77.70
10891;DHT22;5498;50.928;11.598;2023-02-04T16:48:55;4.80;77.80
10891;DHT22;5498;50.928;11.598;2023-02-04T16:51:57;4.70;78.20
10891;DHT22;5498;50.928;11.598;2023-02-04T16:55:02;4.50;78.50
10891;DHT22;5498;50.928;11.598;2023-02-04T16:58:04;4.60;79.00
10891;DHT22;5498;50.928;11.598;2023-02-04T17:01:05;4.50;78.90
10891;DHT22;5498;50.928;11.598;2023-02-04T17:04:07;4.30;78.70
10891;DHT22;5498;50.928;11.598;2023-02-04T17:07:09;4.20;79.50
10891;DHT22;5498;50.928;11.598;2023-02-04T17:10:12;4.30;79.70
10891;DHT22;5498;50.928;11.598;2023-02-04T17:13:14;4.30;80.00
10891;DHT22;5498;50.928;11.598;2023-02-04T17:16:16;4.30;80.60
10891;DHT22;5498;50.928;11.598;2023-02-04T17:19:19;4.30;80.70
10891;DHT22;5498;50.928;11.598;2023-02-04T17:22:21;4.30;80.70
10891;DHT22;5498;50.928;11.598;2023-02-04T17:25:24;4.30;80.80
10891;DHT22;5498;50.928;11.598;2023-02-04T17:28:26;4.30;81.20
10891;DHT22;5498;50.928;11.598;2023-02-04T17:31:28;4.30;81.10
10891;DHT22;5498;50.928;11.598;2023-02-04T17:34:30;4.20;81.20
10891;DHT22;5498;50.928;11.598;2023-02-04T17:37:32;4.20;81.20
10891;DHT22;5498;50.928;11.598;2023-02-04T17:40:35;4.20;81.30
10891;DHT22;5498;50.928;11.598;2023-02-04T17:43:37;4.10;81.50
10891;DHT22;5498;50.928;11.598;2023-02-04T17:46:40;4.10;81.60
10891;DHT22;5498;50.928;11.598;2023-02-04T17:49:42;4.00;81.60
10891;DHT22;5498;50.928;11.598;2023-02-04T17:52:44;4.00;81.60
10891;DHT22;5498;50.928;11.598;2023-02-04T17:55:47;3.90;81.70
10891;DHT22;5498;50.928;11.598;2023-02-04T17:58:49;3.80;82.20
10891;DHT22;5498;50.928;11.598;2023-02-04T18:01:51;3.70;82.30
10891;DHT22;5498;50.928;11.598;2023-02-04T18:04:57;3.70;82.70
10891;DHT22;5498;50.928;11.598;2023-02-04T18:08:09;3.60;83.00
10891;DHT22;5498;50.928;11.598;2023-02-04T18:11:18;3.60;82.80
10891;DHT22;5498;50.928;11.598;2023-02-04T18:14:25;3.60;83.00
10891;DHT22;5498;50.928;11.598;2023-02-04T18:17:27;3.50;83.10
10891;DHT22;5498;50.928;11.598;2023-02-04T18:20:29;3.50;83.10
10891;DHT22;5498;50.928;11.598;2023-02-04T18:23:31;3.40;83.40
10891;DHT22;5498;50.928;11.598;2023-02-04T18:26:40;3.40;83.40
10891;DHT22;5498;50.928;11.598;2023-02-04T18:29:47;3.40;83.60
10891;DHT22;5498;50.928;11.598;2023-02-04T18:32:50;3.30;83.60
10891;DHT22;5498;50.928;11.598;2023-02-04T18:35:57;3.20;83.90
10891;DHT22;5498;50.928;11.598;2023-02-04T18:39:11;3.20;84.20
10891;DHT22;5498;50.928;11.598;2023-02-04T18:42:23;3.10;84.30
10891;DHT22;5498;50.928;11.598;2023-02-04T18:45:28;3.00;84.50
10891;DHT22;5498;50.928;11.598;2023-02-04T18:48:58;3.00;84.80
10891;DHT22;5498;50.928;11.598;2023-02-04T18:52:13;2.90;85.20
10891;DHT22;5498;50.928;11.598;2023-02-04T18:55:23;2.90;85.60
10891;DHT22;5498;50.928;11.598;2023-02-04T18:58:33;2.80;85.70
10891;DHT22;5498;50.928;11.598;2023-02-04T19:01:38;2.80;85.70
10891;DHT22;5498;50.928;11.598;2023-02-04T19:04:40;2.70;85.90
10891;DHT22;5498;50.928;11.598;2023-02-04T19:07:42;2.70;85.90
10891;DHT22;5498;50.928;11.598;2023-02-04T19:10:43;2.60;86.10
10891;DHT22;5498;50.928;11.598;2023-02-04T19:13:47;2.50;86.50
10891;DHT22;5498;50.928;11.598;2023-02-04T19:16:52;2.60;87.00
10891;DHT22;5498;50.928;11.598;2023-02-04T19:19:56;2.60;87.10
10891;DHT22;5498;50.928;11.598;2023-02-04T19:22:59;2.60;86.80
10891;DHT22;5498;50.928;11.598;2023-02-04T19:26:01;2.60;86.30
10891;DHT22;5498;50.928;11.598;2023-02-04T19:29:28;2.90;86.40
10891;DHT22;5498;50.928;11.598;2023-02-04T19:32:43;2.50;86.30
10891;DHT22;5498;50.928;11.598;2023-02-04T19:35:47;2.50;86.40